sensor_id;sensor_type;location;lat;lon;timestamp;pressure;altitude;pressure_sealevel;temperature;humidity
77041;BME280;65974;42.664;23.264;2023-07-28T00:01:59;94463.25;;;14.74;57.25
77041;BME280;65974;42.664;23.264;2023-07-28T00:04:25;94463.25;;;14.74;57.07
77041;BME280;65974;42.664;23.264;2023-07-28T00:06:50;94461.38;;;14.71;57.03
77041;BME280;65974;42.664;23.264;2023-07-28T00:09:16;94467.91;;;14.70;57.04
77041;BME280;65974;42.664;23.264;2023-07-28T00:11:41;94464.09;;;14.68;56.24
77041;BME280;65974;42.664;23.264;2023-07-28T00:14:07;94464.50;;;14.66;56.24
77041;BME280;65974;42.664;23.264;2023-07-28T00:16:32;94463.75;;;14.66;56.38
77041;BME280;65974;42.664;23.264;2023-07-28T00:18:58;94457.25;;;14.63;56.30
77041;BME280;65974;42.664;23.264;2023-07-28T00:21:23;94455.41;;;14.60;55.91
77041;BME280;65974;42.664;23.264;2023-07-28T00:23:48;94449.31;;;14.56;56.29
77041;BME280;65974;42.664;23.264;2023-07-28T00:26:14;94453.59;;;14.50;56.48
77041;BME280;65974;42.664;23.264;2023-07-28T00:28:39;94453.59;;;14.50;56.28
77041;BME280;65974;42.664;23.264;2023-07-28T00:31:05;94445.53;;;14.54;56.30
77041;BME280;65974;42.664;23.264;2023-07-28T00:33:30;94445.88;;;14.56;55.91
77041;BME280;65974;42.664;23.264;2023-07-28T00:35:56;94443.16;;;14.59;55.57
77041;BME280;65974;42.664;23.264;2023-07-28T00:38:21;94450.78;;;14.61;55.29
77041;BME280;65974;42.664;23.264;2023-07-28T00:40:47;94452.72;;;14.60;55.10
77041;BME280;65974;42.664;23.264;2023-07-28T00:43:12;94456.91;;;14.61;54.93
77041;BME280;65974;42.664;23.264;2023-07-28T00:45:38;94452.25;;;14.65;54.72
77041;BME280;65974;42.664;23.264;2023-07-28T00:48:13;94457.94;;;14.71;54.20
77041;BME280;65974;42.664;23.264;2023-07-28T00:50:44;94451.38;;;14.75;54.50
77041;BME280;65974;42.664;23.264;2023-07-28T00:53:10;94458.94;;;14.84;54.46
77041;BME280;65974;42.664;23.264;2023-07-28T00:55:37;94453.06;;;14.93;54.47
77041;BME280;65974;42.664;23.264;2023-07-28T00:58:03;94449.56;;;14.96;54.35
77041;BME280;65974;42.664;23.264;2023-07-28T01:00:29;94452.19;;;14.99;55.44
77041;BME280;65974;42.664;23.264;2023-07-28T01:02:54;94452.88;;;15.07;55.76
77041;BME280;65974;42.664;23.264;2023-07-28T01:05:26;94455.47;;;15.10;55.28
77041;BME280;65974;42.664;23.264;2023-07-28T01:08:01;94452.72;;;15.17;56.58
77041;BME280;65974;42.664;23.264;2023-07-28T01:10:31;94446.22;;;15.15;56.67
77041;BME280;65974;42.664;23.264;2023-07-28T01:12:59;94449.75;;;15.08;57.34
77041;BME280;65974;42.664;23.264;2023-07-28T01:15:24;94460.81;;;15.14;56.87
77041;BME280;65974;42.664;23.264;2023-07-28T01:17:51;94459.63;;;15.15;57.29
77041;BME280;65974;42.664;23.264;2023-07-28T01:20:17;94459.22;;;15.16;57.29
77041;BME280;65974;42.664;23.264;2023-07-28T01:27:56;94453.91;;;15.13;58.19
77041;BME280;65974;42.664;23.264;2023-07-28T01:30:23;94462.41;;;15.08;58.53
77041;BME280;65974;42.664;23.264;2023-07-28T01:32:53;94456.69;;;15.06;57.93
77041;BME280;65974;42.664;23.264;2023-07-28T01:35:19;94453.56;;;15.11;57.32
77041;BME280;65974;42.664;23.264;2023-07-28T01:37:44;94452.00;;;15.13;57.27
77041;BME280;65974;42.664;23.264;2023-07-28T01:40:10;94460.41;;;15.15;57.14
77041;BME280;65974;42.664;23.264;2023-07-28T01:42:36;94460.00;;;15.17;57.48
77041;BME280;65974;42.664;23.264;2023-07-28T01:45:02;94458.44;;;15.19;58.36
77041;BME280;65974;42.664;23.264;2023-07-28T01:47:27;94461.97;;;15.13;58.46
77041;BME280;65974;42.664;23.264;2023-07-28T01:49:53;94453.63;;;15.07;58.89
77041;BME280;65974;42.664;23.264;2023-07-28T01:52:18;94455.19;;;15.05;58.92
77041;BME280;65974;42.664;23.264;2023-07-28T01:54:44;94458.28;;;15.03;58.99
77041;BME280;65974;42.664;23.264;2023-07-28T01:57:09;94461.41;;;14.98;59.53
77041;BME280;65974;42.664;23.264;2023-07-28T01:59:34;94466.09;;;14.91;59.48
77041;BME280;65974;42.664;23.264;2023-07-28T02:02:00;94468.47;;;14.85;60.00
77041;BME280;65974;42.664;23.264;2023-07-28T02:04:25;94470.09;;;14.79;59.66
77041;BME280;65974;42.664;23.264;2023-07-28T02:06:51;94465.22;;;14.70;59.65
77041;BME280;65974;42.664;23.264;2023-07-28T02:09:16;94461.47;;;14.64;59.69
77041;BME280;65974;42.664;23.264;2023-07-28T02:11:42;94464.22;;;14.57;60.34
77041;BME280;65974;42.664;23.264;2023-07-28T02:14:07;94458.09;;;14.57;59.98
77041;BME280;65974;42.664;23.264;2023-07-28T02:16:33;94470.41;;;14.54;60.44
77041;BME280;65974;42.664;23.264;2023-07-28T02:18:58;94466.25;;;14.50;60.27
77041;BME280;65974;42.664;23.264;2023-07-28T02:21:24;94471.56;;;14.53;60.74
77041;BME280;65974;42.664;23.264;2023-07-28T02:23:49;94469.66;;;14.50;60.47
77041;BME280;65974;42.664;23.264;2023-07-28T02:26:14;94469.28;;;14.52;60.67
77041;BME280;65974;42.664;23.264;2023-07-28T02:28:40;94473.53;;;14.49;60.61
77041;BME280;65974;42.664;23.264;2023-07-28T02:31:05;94467.03;;;14.47;60.66
77041;BME280;65974;42.664;23.264;2023-07-28T02:33:31;94472.44;;;14.43;60.00
77041;BME280;65974;42.664;23.264;2023-07-28T02:36:00;94470.50;;;14.44;60.54
77041;BME280;65974;42.664;23.264;2023-07-28T02:38:26;94465.19;;;14.40;60.87
77041;BME280;65974;42.664;23.264;2023-07-28T02:40:51;94470.91;;;14.42;60.86
77041;BME280;65974;42.664;23.264;2023-07-28T02:43:16;94472.47;;;14.40;60.33
77041;BME280;65974;42.664;23.264;2023-07-28T02:45:42;94471.44;;;14.30;60.90
77041;BME280;65974;42.664;23.264;2023-07-28T02:48:07;94468.50;;;14.18;61.89
77041;BME280;65974;42.664;23.264;2023-07-28T02:50:33;94462.00;;;14.15;61.96
77041;BME280;65974;42.664;23.264;2023-07-28T02:52:58;94470.09;;;14.08;61.86
77041;BME280;65974;42.664;23.264;2023-07-28T02:55:24;94463.66;;;14.02;62.33
77041;BME280;65974;42.664;23.264;2023-07-28T02:57:49;94461.34;;;14.04;62.40
77041;BME280;65974;42.664;23.264;2023-07-28T03:00:15;94470.09;;;14.08;62.31
77041;BME280;65974;42.664;23.264;2023-07-28T03:02:40;94463.25;;;14.03;62.03
77041;BME280;65974;42.664;23.264;2023-07-28T03:05:06;94473.69;;;13.94;62.75
77041;BME280;65974;42.664;23.264;2023-07-28T03:07:31;94476.50;;;13.80;62.88
77041;BME280;65974;42.664;23.264;2023-07-28T03:09:57;94474.28;;;13.72;63.68
77041;BME280;65974;42.664;23.264;2023-07-28T03:12:22;94471.69;;;13.65;63.80
77041;BME280;65974;42.664;23.264;2023-07-28T03:14:48;94475.16;;;13.58;64.55
77041;BME280;65974;42.664;23.264;2023-07-28T03:17:13;94475.63;;;13.50;64.37
77041;BME280;65974;42.664;23.264;2023-07-28T03:19:39;94478.31;;;13.46;64.42
77041;BME280;65974;42.664;23.264;2023-07-28T03:22:04;94476.44;;;13.43;64.98
77041;BME280;65974;42.664;23.264;2023-07-28T03:24:30;94471.78;;;13.51;64.38
77041;BME280;65974;42.664;23.264;2023-07-28T03:26:55;94485.50;;;13.56;64.53
77041;BME280;65974;42.664;23.264;2023-07-28T03:29:21;94485.09;;;13.58;64.78
77041;BME280;65974;42.664;23.264;2023-07-28T03:31:47;94491.22;;;13.55;64.40
77041;BME280;65974;42.664;23.264;2023-07-28T03:34:12;94487.75;;;13.61;64.39
77041;BME280;65974;42.664;23.264;2023-07-28T03:36:38;94492.31;;;13.64;64.26
77041;BME280;65974;42.664;23.264;2023-07-28T03:39:04;94495.00;;;13.64;63.81
77041;BME280;65974;42.664;23.264;2023-07-28T03:41:29;94487.72;;;13.65;64.29
77041;BME280;65974;42.664;23.264;2023-07-28T03:43:55;94494.53;;;13.73;64.35
77041;BME280;65974;42.664;23.264;2023-07-28T03:46:21;94493.38;;;13.77;64.21
77041;BME280;65974;42.664;23.264;2023-07-28T03:48:46;94495.22;;;13.84;64.20
77041;BME280;65974;42.664;23.264;2023-07-28T03:51:11;94498.63;;;13.84;63.63
77041;BME280;65974;42.664;23.264;2023-07-28T03:53:37;94495.22;;;13.84;63.46
77041;BME280;65974;42.664;23.264;2023-07-28T03:56:02;94493.66;;;13.86;62.75
77041;BME280;65974;42.664;23.264;2023-07-28T03:58:28;94486.75;;;13.89;63.35
77041;BME280;65974;42.664;23.264;2023-07-28T04:00:54;94489.41;;;13.89;63.17
77041;BME280;65974;42.664;23.264;2023-07-28T04:03:19;94489.81;;;13.87;63.31
77041;BME280;65974;42.664;23.264;2023-07-28T04:05:45;94490.25;;;13.82;63.66
77041;BME280;65974;42.664;23.264;2023-07-28T04:08:10;94493.31;;;13.81;63.34
77041;BME280;65974;42.664;23.264;2023-07-28T04:10:36;94490.66;;;13.81;63.47
77041;BME280;65974;42.664;23.264;2023-07-28T04:13:01;94499.41;;;13.85;63.66
77041;BME280;65974;42.664;23.264;2023-07-28T04:15:27;94499.41;;;13.85;63.29
77041;BME280;65974;42.664;23.264;2023-07-28T04:17:52;94493.63;;;13.90;63.30
77041;BME280;65974;42.664;23.264;2023-07-28T04:20:17;94498.19;;;13.93;63.39
77041;BME280;65974;42.664;23.264;2023-07-28T04:22:43;94498.13;;;14.00;62.68
77041;BME280;65974;42.664;23.264;2023-07-28T04:25:08;94507.25;;;14.06;62.38
77041;BME280;65974;42.664;23.264;2023-07-28T04:27:34;94504.50;;;14.13;62.72
77041;BME280;65974;42.664;23.264;2023-07-28T04:29:59;94511.31;;;14.21;62.10
77041;BME280;65974;42.664;23.264;2023-07-28T04:32:25;94505.91;;;14.25;62.15
77041;BME280;65974;42.664;23.264;2023-07-28T04:34:51;94497.06;;;14.28;62.14
77041;BME280;65974;42.664;23.264;2023-07-28T04:37:17;94502.41;;;14.35;62.03
77041;BME280;65974;42.664;23.264;2023-07-28T04:39:42;94502.28;;;14.45;62.10
77041;BME280;65974;42.664;23.264;2023-07-28T04:42:08;94504.50;;;14.50;61.31
77041;BME280;65974;42.664;23.264;2023-07-28T04:44:34;94502.19;;;14.52;61.56
77041;BME280;65974;42.664;23.264;2023-07-28T04:46:59;94501.41;;;14.55;61.46
77041;BME280;65974;42.664;23.264;2023-07-28T04:49:25;94493.66;;;14.61;61.16
77041;BME280;65974;42.664;23.264;2023-07-28T04:51:50;94505.06;;;14.68;60.95
77041;BME280;65974;42.664;23.264;2023-07-28T04:54:15;94502.31;;;14.75;60.48
77041;BME280;65974;42.664;23.264;2023-07-28T04:56:41;94501.84;;;14.84;61.19
77041;BME280;65974;42.664;23.264;2023-07-28T04:59:06;94497.84;;;14.96;60.66
77041;BME280;65974;42.664;23.264;2023-07-28T05:01:33;94496.94;;;15.06;61.24
77041;BME280;65974;42.664;23.264;2023-07-28T05:03:58;94500.69;;;15.12;60.25
77041;BME280;65974;42.664;23.264;2023-07-28T05:06:24;94497.56;;;15.17;59.92
77041;BME280;65974;42.664;23.264;2023-07-28T05:08:49;94496.28;;;15.25;59.34
77041;BME280;65974;42.664;23.264;2023-07-28T05:11:15;94498.00;;;15.38;59.51
77041;BME280;65974;42.664;23.264;2023-07-28T05:13:40;94502.91;;;15.47;59.15
77041;BME280;65974;42.664;23.264;2023-07-28T05:16:05;94495.88;;;15.57;58.08
77041;BME280;65974;42.664;23.264;2023-07-28T05:18:31;94498.50;;;15.60;57.66
77041;BME280;65974;42.664;23.264;2023-07-28T05:20:56;94488.88;;;15.63;58.00
77041;BME280;65974;42.664;23.264;2023-07-28T05:23:22;94496.78;;;15.70;57.19
77041;BME280;65974;42.664;23.264;2023-07-28T05:25:47;94499.09;;;15.71;57.73
77041;BME280;65974;42.664;23.264;2023-07-28T05:28:13;94497.03;;;15.79;57.99
77041;BME280;65974;42.664;23.264;2023-07-28T05:30:38;94502.28;;;15.86;57.13
77041;BME280;65974;42.664;23.264;2023-07-28T05:33:03;94499.88;;;15.91;57.09
77041;BME280;65974;42.664;23.264;2023-07-28T05:35:29;94492.41;;;16.02;56.85
77041;BME280;65974;42.664;23.264;2023-07-28T05:37:55;94488.56;;;16.03;55.73
77041;BME280;65974;42.664;23.264;2023-07-28T05:40:20;94502.00;;;16.03;55.22
77041;BME280;65974;42.664;23.264;2023-07-28T05:42:46;94494.69;;;16.04;55.82
77041;BME280;65974;42.664;23.264;2023-07-28T05:45:11;94492.06;;;16.00;56.35
77041;BME280;65974;42.664;23.264;2023-07-28T05:47:36;94484.25;;;16.09;55.97
77041;BME280;65974;42.664;23.264;2023-07-28T05:50:04;94485.56;;;16.21;54.94
77041;BME280;65974;42.664;23.264;2023-07-28T05:52:29;94492.47;;;16.22;55.36
77041;BME280;65974;42.664;23.264;2023-07-28T05:54:56;94491.00;;;16.17;56.27
77041;BME280;65974;42.664;23.264;2023-07-28T05:57:21;94480.47;;;16.26;55.98
77041;BME280;65974;42.664;23.264;2023-07-28T05:59:47;94482.28;;;16.33;55.83
77041;BME280;65974;42.664;23.264;2023-07-28T06:02:12;94476.03;;;16.40;55.89
77041;BME280;65974;42.664;23.264;2023-07-28T06:04:38;94476.91;;;16.53;55.58
77041;BME280;65974;42.664;23.264;2023-07-28T06:07:03;94473.41;;;16.56;55.29
77041;BME280;65974;42.664;23.264;2023-07-28T06:09:29;94473.63;;;16.65;54.31
77041;BME280;65974;42.664;23.264;2023-07-28T06:11:54;94471.13;;;16.74;54.30
77041;BME280;65974;42.664;23.264;2023-07-28T06:14:19;94473.25;;;16.82;53.87
77041;BME280;65974;42.664;23.264;2023-07-28T06:16:45;94473.97;;;16.86;51.77
77041;BME280;65974;42.664;23.264;2023-07-28T06:19:10;94476.44;;;16.97;53.18
77041;BME280;65974;42.664;23.264;2023-07-28T06:21:36;94475.09;;;17.05;53.30
77041;BME280;65974;42.664;23.264;2023-07-28T06:24:01;94479.47;;;17.15;52.47
77041;BME280;65974;42.664;23.264;2023-07-28T06:26:27;94476.59;;;17.06;52.50
77041;BME280;65974;42.664;23.264;2023-07-28T06:28:52;94470.13;;;17.03;53.85
77041;BME280;65974;42.664;23.264;2023-07-28T06:31:18;94469.47;;;17.16;53.47
77041;BME280;65974;42.664;23.264;2023-07-28T06:33:43;94471.75;;;17.17;53.75
77041;BME280;65974;42.664;23.264;2023-07-28T06:36:09;94469.34;;;17.23;53.18
77041;BME280;65974;42.664;23.264;2023-07-28T06:38:34;94462.84;;;17.36;52.31
77041;BME280;65974;42.664;23.264;2023-07-28T06:40:59;94465.63;;;17.49;51.74
77041;BME280;65974;42.664;23.264;2023-07-28T06:43:25;94465.59;;;17.52;52.09
77041;BME280;65974;42.664;23.264;2023-07-28T06:45:52;94459.28;;;17.59;52.43
77041;BME280;65974;42.664;23.264;2023-07-28T06:48:18;94457.50;;;17.68;51.94
77041;BME280;65974;42.664;23.264;2023-07-28T06:50:43;94470.16;;;17.71;51.16
77041;BME280;65974;42.664;23.264;2023-07-28T06:53:09;94465.34;;;17.79;51.93
77041;BME280;65974;42.664;23.264;2023-07-28T06:55:34;94468.44;;;17.94;52.09
77041;BME280;65974;42.664;23.264;2023-07-28T06:58:00;94465.91;;;18.03;51.92
77041;BME280;65974;42.664;23.264;2023-07-28T07:00:26;94465.06;;;18.06;51.04
77041;BME280;65974;42.664;23.264;2023-07-28T07:02:51;94467.66;;;18.09;50.69
77041;BME280;65974;42.664;23.264;2023-07-28T07:05:17;94468.66;;;18.15;50.71
77041;BME280;65974;42.664;23.264;2023-07-28T07:07:42;94468.06;;;18.24;50.49
77041;BME280;65974;42.664;23.264;2023-07-28T07:10:08;94469.03;;;18.30;50.95
77041;BME280;65974;42.664;23.264;2023-07-28T07:12:35;94465.06;;;18.34;50.11
77041;BME280;65974;42.664;23.264;2023-07-28T07:15:01;94461.88;;;18.39;50.07
77041;BME280;65974;42.664;23.264;2023-07-28T07:17:26;94465.47;;;18.49;50.16
77041;BME280;65974;42.664;23.264;2023-07-28T07:19:51;94457.63;;;18.54;50.60
77041;BME280;65974;42.664;23.264;2023-07-28T07:22:17;94460.00;;;18.52;49.85
77041;BME280;65974;42.664;23.264;2023-07-28T07:24:43;94463.59;;;18.62;49.23
77041;BME280;65974;42.664;23.264;2023-07-28T07:27:08;94467.25;;;18.68;49.19
77041;BME280;65974;42.664;23.264;2023-07-28T07:29:37;94469.56;;;18.70;49.23
77041;BME280;65974;42.664;23.264;2023-07-28T07:32:04;94470.41;;;18.79;49.24
77041;BME280;65974;42.664;23.264;2023-07-28T07:34:30;94469.13;;;18.84;48.43
77041;BME280;65974;42.664;23.264;2023-07-28T07:36:55;94468.84;;;18.94;49.29
77041;BME280;65974;42.664;23.264;2023-07-28T07:39:22;94470.13;;;19.02;48.64
77041;BME280;65974;42.664;23.264;2023-07-28T07:41:47;94473.72;;;19.12;49.36
77041;BME280;65974;42.664;23.264;2023-07-28T07:44:13;94469.94;;;19.09;47.24
77041;BME280;65974;42.664;23.264;2023-07-28T07:46:38;94471.34;;;19.14;47.55
77041;BME280;65974;42.664;23.264;2023-07-28T07:49:03;94474.59;;;19.21;49.75
77041;BME280;65974;42.664;23.264;2023-07-28T07:51:31;94477.94;;;19.25;47.94
77041;BME280;65974;42.664;23.264;2023-07-28T07:53:56;94477.72;;;19.32;47.95
77041;BME280;65974;42.664;23.264;2023-07-28T07:56:22;94469.34;;;19.43;48.03
77041;BME280;65974;42.664;23.264;2023-07-28T07:58:47;94472.78;;;19.56;48.40
77041;BME280;65974;42.664;23.264;2023-07-28T08:01:12;94477.00;;;19.70;46.32
77041;BME280;65974;42.664;23.264;2023-07-28T08:03:39;94475.69;;;19.62;47.78
77041;BME280;65974;42.664;23.264;2023-07-28T08:06:04;94475.78;;;19.71;48.46
77041;BME280;65974;42.664;23.264;2023-07-28T08:08:30;94470.19;;;19.78;47.03
77041;BME280;65974;42.664;23.264;2023-07-28T08:10:56;94474.28;;;19.82;46.56
77041;BME280;65974;42.664;23.264;2023-07-28T08:13:21;94475.78;;;19.83;46.53
77041;BME280;65974;42.664;23.264;2023-07-28T08:15:47;94477.28;;;19.97;47.22
77041;BME280;65974;42.664;23.264;2023-07-28T08:18:13;94467.88;;;20.01;46.41
77041;BME280;65974;42.664;23.264;2023-07-28T08:20:39;94467.50;;;20.12;46.70
77041;BME280;65974;42.664;23.264;2023-07-28T08:23:05;94461.09;;;20.19;46.19
77041;BME280;65974;42.664;23.264;2023-07-28T08:25:30;94462.84;;;20.25;45.61
77041;BME280;65974;42.664;23.264;2023-07-28T08:27:55;94458.16;;;20.26;44.86
77041;BME280;65974;42.664;23.264;2023-07-28T08:30:21;94463.34;;;20.33;46.22
77041;BME280;65974;42.664;23.264;2023-07-28T08:32:47;94465.69;;;20.43;46.12
77041;BME280;65974;42.664;23.264;2023-07-28T08:35:12;94464.69;;;20.71;45.49
77041;BME280;65974;42.664;23.264;2023-07-28T08:37:37;94469.22;;;20.74;45.46
77041;BME280;65974;42.664;23.264;2023-07-28T08:40:03;94462.38;;;20.82;45.37
77041;BME280;65974;42.664;23.264;2023-07-28T08:42:31;94461.66;;;20.91;45.19
77041;BME280;65974;42.664;23.264;2023-07-28T08:45:00;94464.19;;;21.07;44.40
77041;BME280;65974;42.664;23.264;2023-07-28T08:47:26;94456.22;;;21.13;44.48
77041;BME280;65974;42.664;23.264;2023-07-28T08:49:51;94453.09;;;21.14;44.99
77041;BME280;65974;42.664;23.264;2023-07-28T08:52:17;94454.81;;;21.30;43.20
77041;BME280;65974;42.664;23.264;2023-07-28T08:54:43;94454.22;;;21.35;44.30
77041;BME280;65974;42.664;23.264;2023-07-28T08:57:09;94450.66;;;21.47;43.69
77041;BME280;65974;42.664;23.264;2023-07-28T08:59:35;94442.25;;;21.54;45.06
77041;BME280;65974;42.664;23.264;2023-07-28T09:02:01;94438.66;;;21.66;42.21
77041;BME280;65974;42.664;23.264;2023-07-28T09:04:27;94429.81;;;21.66;42.58
77041;BME280;65974;42.664;23.264;2023-07-28T09:06:53;94426.34;;;21.65;44.55
77041;BME280;65974;42.664;23.264;2023-07-28T09:09:21;94421.38;;;21.73;43.58
77041;BME280;65974;42.664;23.264;2023-07-28T09:11:53;94420.63;;;21.81;43.60
77041;BME280;65974;42.664;23.264;2023-07-28T09:14:20;94422.50;;;21.93;42.32
77041;BME280;65974;42.664;23.264;2023-07-28T09:16:47;94417.06;;;22.02;42.75
77041;BME280;65974;42.664;23.264;2023-07-28T09:19:13;94403.81;;;22.13;40.28
77041;BME280;65974;42.664;23.264;2023-07-28T09:21:40;94405.63;;;22.16;40.15
77041;BME280;65974;42.664;23.264;2023-07-28T09:24:07;94401.72;;;22.17;41.35
77041;BME280;65974;42.664;23.264;2023-07-28T09:26:44;94401.25;;;22.28;40.33
77041;BME280;65974;42.664;23.264;2023-07-28T09:29:20;94393.72;;;22.23;39.88
77041;BME280;65974;42.664;23.264;2023-07-28T09:31:47;94390.09;;;22.17;41.95
77041;BME280;65974;42.664;23.264;2023-07-28T09:34:26;94392.81;;;22.26;40.07
77041;BME280;65974;42.664;23.264;2023-07-28T09:36:53;94386.63;;;22.25;40.74
77041;BME280;65974;42.664;23.264;2023-07-28T09:39:20;94382.13;;;22.22;41.37
77041;BME280;65974;42.664;23.264;2023-07-28T09:41:46;94377.00;;;22.33;40.98
77041;BME280;65974;42.664;23.264;2023-07-28T09:44:12;94382.38;;;22.52;39.33
77041;BME280;65974;42.664;23.264;2023-07-28T09:46:51;94371.38;;;22.55;40.34
77041;BME280;65974;42.664;23.264;2023-07-28T09:49:22;94368.34;;;22.53;39.82
77041;BME280;65974;42.664;23.264;2023-07-28T09:51:54;94362.50;;;22.46;40.73
77041;BME280;65974;42.664;23.264;2023-07-28T09:54:25;94367.91;;;22.46;40.76
77041;BME280;65974;42.664;23.264;2023-07-28T09:56:58;94368.06;;;22.51;41.18
77041;BME280;65974;42.664;23.264;2023-07-28T09:59:29;94367.59;;;22.71;39.47
77041;BME280;65974;42.664;23.264;2023-07-28T10:01:58;94356.41;;;22.87;39.24
77041;BME280;65974;42.664;23.264;2023-07-28T10:04:25;94353.91;;;22.98;39.27
77041;BME280;65974;42.664;23.264;2023-07-28T10:06:53;94354.06;;;23.03;38.89
77041;BME280;65974;42.664;23.264;2023-07-28T10:09:26;94360.84;;;23.08;39.93
77041;BME280;65974;42.664;23.264;2023-07-28T10:11:53;94352.94;;;23.19;38.79
77041;BME280;65974;42.664;23.264;2023-07-28T10:14:29;94355.03;;;23.24;39.46
77041;BME280;65974;42.664;23.264;2023-07-28T10:16:58;94358.50;;;23.25;37.06
77041;BME280;65974;42.664;23.264;2023-07-28T10:19:28;94355.03;;;23.24;36.69
77041;BME280;65974;42.664;23.264;2023-07-28T10:22:07;94360.00;;;23.26;37.50
77041;BME280;65974;42.664;23.264;2023-07-28T10:30:00;94337.06;;;23.27;36.04
77041;BME280;65974;42.664;23.264;2023-07-28T10:32:27;94333.72;;;23.32;37.59
77041;BME280;65974;42.664;23.264;2023-07-28T10:35:06;94335.38;;;23.38;37.74
77041;BME280;65974;42.664;23.264;2023-07-28T10:37:32;94338.47;;;23.46;37.64
77041;BME280;65974;42.664;23.264;2023-07-28T10:40:29;94335.72;;;23.55;35.67
77041;BME280;65974;42.664;23.264;2023-07-28T10:42:55;94331.72;;;23.65;36.30
77041;BME280;65974;42.664;23.264;2023-07-28T10:45:23;94332.00;;;23.67;37.23
77041;BME280;65974;42.664;23.264;2023-07-28T10:47:49;94326.97;;;23.74;37.42
77041;BME280;65974;42.664;23.264;2023-07-28T10:50:15;94327.72;;;23.75;36.68
77041;BME280;65974;42.664;23.264;2023-07-28T10:52:45;94319.13;;;23.91;34.29
77041;BME280;65974;42.664;23.264;2023-07-28T10:55:22;94319.94;;;24.06;33.78
77041;BME280;65974;42.664;23.264;2023-07-28T10:57:49;94323.53;;;24.27;32.48
77041;BME280;65974;42.664;23.264;2023-07-28T11:00:17;94314.72;;;24.32;33.03
77041;BME280;65974;42.664;23.264;2023-07-28T11:02:43;94307.00;;;24.30;32.67
77041;BME280;65974;42.664;23.264;2023-07-28T11:05:28;94304.56;;;24.47;31.66
77041;BME280;65974;42.664;23.264;2023-07-28T11:07:59;94302.88;;;24.64;30.64
77041;BME280;65974;42.664;23.264;2023-07-28T11:10:28;94304.94;;;24.69;31.09
77041;BME280;65974;42.664;23.264;2023-07-28T11:12:53;94298.94;;;24.65;31.43
77041;BME280;65974;42.664;23.264;2023-07-28T11:15:23;94294.44;;;24.62;32.10
77041;BME280;65974;42.664;23.264;2023-07-28T11:17:51;94294.97;;;24.66;32.22
77041;BME280;65974;42.664;23.264;2023-07-28T11:20:18;94292.47;;;24.77;30.47
77041;BME280;65974;42.664;23.264;2023-07-28T11:22:52;94293.59;;;24.85;31.37
77041;BME280;65974;42.664;23.264;2023-07-28T11:25:18;94291.84;;;25.02;31.75
77041;BME280;65974;42.664;23.264;2023-07-28T11:27:44;94281.81;;;25.08;31.18
77041;BME280;65974;42.664;23.264;2023-07-28T11:30:12;94279.16;;;25.14;32.29
77041;BME280;65974;42.664;23.264;2023-07-28T11:32:38;94275.28;;;25.20;32.18
77041;BME280;65974;42.664;23.264;2023-07-28T11:35:08;94266.81;;;25.18;30.93
77041;BME280;65974;42.664;23.264;2023-07-28T11:37:41;94261.72;;;25.26;30.32
77041;BME280;65974;42.664;23.264;2023-07-28T11:40:08;94266.44;;;25.25;31.12
77041;BME280;65974;42.664;23.264;2023-07-28T11:42:43;94268.88;;;25.23;32.45
77041;BME280;65974;42.664;23.264;2023-07-28T11:45:10;94267.97;;;25.47;31.96
77041;BME280;65974;42.664;23.264;2023-07-28T11:47:36;94263.88;;;25.57;32.23
77041;BME280;65974;42.664;23.264;2023-07-28T11:50:02;94267.50;;;25.68;31.66
77041;BME280;65974;42.664;23.264;2023-07-28T11:52:32;94258.81;;;25.70;31.62
77041;BME280;65974;42.664;23.264;2023-07-28T11:55:01;94264.34;;;25.75;32.77
77041;BME280;65974;42.664;23.264;2023-07-28T11:57:29;94264.31;;;25.95;30.72
77041;BME280;65974;42.664;23.264;2023-07-28T12:00:01;94264.56;;;26.17;30.85
77041;BME280;65974;42.664;23.264;2023-07-28T12:02:31;94257.47;;;26.26;28.79
77041;BME280;65974;42.664;23.264;2023-07-28T12:04:58;94259.81;;;26.38;30.46
77041;BME280;65974;42.664;23.264;2023-07-28T12:07:28;94254.31;;;26.64;29.95
77041;BME280;65974;42.664;23.264;2023-07-28T12:09:55;94249.69;;;26.75;29.98
77041;BME280;65974;42.664;23.264;2023-07-28T12:12:24;94240.72;;;26.75;30.70
77041;BME280;65974;42.664;23.264;2023-07-28T12:14:52;94238.44;;;26.68;30.80
77041;BME280;65974;42.664;23.264;2023-07-28T12:17:19;94240.25;;;26.76;30.65
77041;BME280;65974;42.664;23.264;2023-07-28T12:22:44;94235.44;;;27.03;30.42
77041;BME280;65974;42.664;23.264;2023-07-28T12:25:11;94236.34;;;27.31;29.15
77041;BME280;65974;42.664;23.264;2023-07-28T12:27:37;94224.44;;;27.34;29.66
77041;BME280;65974;42.664;23.264;2023-07-28T12:30:03;94232.44;;;27.37;29.62
77041;BME280;65974;42.664;23.264;2023-07-28T12:32:29;94235.75;;;27.52;29.49
77041;BME280;65974;42.664;23.264;2023-07-28T12:34:54;94224.53;;;27.50;29.47
77041;BME280;65974;42.664;23.264;2023-07-28T12:37:20;94223.81;;;27.55;29.73
77041;BME280;65974;42.664;23.264;2023-07-28T12:39:46;94217.38;;;27.70;30.40
77041;BME280;65974;42.664;23.264;2023-07-28T12:42:12;94217.41;;;27.75;29.00
77041;BME280;65974;42.664;23.264;2023-07-28T12:44:38;94215.91;;;27.80;29.65
77041;BME280;65974;42.664;23.264;2023-07-28T12:47:04;94220.16;;;27.86;29.43
77041;BME280;65974;42.664;23.264;2023-07-28T12:49:31;94201.25;;;27.88;29.12
77041;BME280;65974;42.664;23.264;2023-07-28T12:52:00;94225.25;;;28.37;28.87
77041;BME280;65974;42.664;23.264;2023-07-28T12:54:26;94222.00;;;28.39;28.04
77041;BME280;65974;42.664;23.264;2023-07-28T12:56:53;94211.56;;;28.54;28.89
77041;BME280;65974;42.664;23.264;2023-07-28T12:59:19;94208.31;;;28.78;28.20
77041;BME280;65974;42.664;23.264;2023-07-28T13:01:44;94206.25;;;29.28;27.51